Observation data for Seagraves on 02/14/2018      Previous  Date  Next       Current Mesonet Observations  Soil Data  Daily Summary Page  Observations in Plain Language
KSGV 140600Z 28001KT 06/M01 A3026 RMK A01 T00611014  RH  059%=      5-min Rain = 0
KSGV 140605Z 28002KT 06/M02 A3025 RMK A01 T00561015  RH  061%=      5-min Rain = 0
KSGV 140610Z 25003KT 06/M01 A3025 RMK A01 T00551014  RH  062%=      5-min Rain = 0
KSGV 140615Z 25003KT 05/M02 A3025 RMK A01 T00541016  RH  061%=      5-min Rain = 0
KSGV 140620Z 28004KT 05/M02 A3025 RMK A01 T00531018  RH  061%=      5-min Rain = 0
KSGV 140625Z 28004KT 05/M02 A3025 RMK A01 T00511019  RH  061%=      5-min Rain = 0
KSGV 140630Z 29003KT 05/M02 A3024 RMK A01 T00511018  RH  061%=      5-min Rain = 0
KSGV 140635Z 29003KT 05/M02 A3024 RMK A01 T00521018  RH  061%=      5-min Rain = 0
KSGV 140640Z 28003KT 05/M02 A3024 RMK A01 T00511016  RH  062%=      5-min Rain = 0
KSGV 140645Z 28002KT 05/M02 A3024 RMK A01 T00521015  RH  063%=      5-min Rain = 0
KSGV 140650Z 28002KT 05/M02 A3024 RMK A01 T00531015  RH  063%=      5-min Rain = 0
KSGV 140655Z 29003KT 05/M02 A3024 RMK A01 T00531015  RH  062%=      5-min Rain = 0
KSGV 140700Z 28003KT 06/M02 A3024 RMK A01 T00561015  RH  061%=      5-min Rain = 0
KSGV 140705Z 26003KT 06/M02 A3024 RMK A01 T00561016  RH  061%=      5-min Rain = 0
KSGV 140710Z 23003KT 06/M02 A3024 RMK A01 T00561016  RH  060%=      5-min Rain = 0
KSGV 140715Z 22003KT 06/M01 A3024 RMK A01 T00571012  RH  062%=      5-min Rain = 0
KSGV 140720Z 24003KT 06/M01 A3024 RMK A01 T00601011  RH  061%=      5-min Rain = 0
KSGV 140725Z 20001KT 06/M01 A3024 RMK A01 T00601012  RH  061%=      5-min Rain = 0
KSGV 140730Z 17000KT 06/M01 A3024 RMK A01 T00611006  RH  063%=      5-min Rain = 0
KSGV 140735Z 16001KT 06/M00 A3024 RMK A01 T00631004  RH  063%=      5-min Rain = 0
KSGV 140740Z 16002KT 07/M00 A3024 RMK A01 T00651004  RH  062%=      5-min Rain = 0
KSGV 140745Z 18003KT 07/M00 A3024 RMK A01 T00651004  RH  062%=      5-min Rain = 0
KSGV 140750Z 18004KT 06/M01 A3024 RMK A01 T00641008  RH  061%=      5-min Rain = 0
KSGV 140755Z 19004KT 06/M01 A3024 RMK A01 T00631011  RH  060%=      5-min Rain = 0
KSGV 140800Z 19003KT 06/M01 A3023 RMK A01 T00621013  RH  059%=      5-min Rain = 0
KSGV 140805Z 20003KT 06/M01 A3023 RMK A01 T00611013  RH  060%=      5-min Rain = 0
KSGV 140810Z 22003KT 06/M01 A3023 RMK A01 T00621013  RH  060%=      5-min Rain = 0
KSGV 140815Z 23003KT 06/M01 A3023 RMK A01 T00621013  RH  059%=      5-min Rain = 0
KSGV 140820Z 24002KT 06/M01 A3023 RMK A01 T00621014  RH  059%=      5-min Rain = 0
KSGV 140825Z 24003KT 06/M02 A3023 RMK A01 T00591016  RH  059%=      5-min Rain = 0
KSGV 140830Z 28003KT 06/M01 A3022 RMK A01 T00571011  RH  062%=      5-min Rain = 0
KSGV 140835Z 26002KT 06/M01 A3022 RMK A01 T00561013  RH  062%=      5-min Rain = 0
KSGV 140840Z 25002KT 05/M01 A3022 RMK A01 T00541011  RH  064%=      5-min Rain = 0
KSGV 140845Z 19002KT 05/M01 A3023 RMK A01 T00541011  RH  064%=      5-min Rain = 0
KSGV 140850Z 20002KT 05/M02 A3022 RMK A01 T00531015  RH  062%=      5-min Rain = 0
KSGV 140855Z 21003KT 05/M02 A3022 RMK A01 T00511018  RH  062%=      5-min Rain = 0
KSGV 140900Z 22003KT 05/M02 A3022 RMK A01 T00501017  RH  062%=      5-min Rain = 0
KSGV 140905Z 23004KT 05/M02 A3022 RMK A01 T00481020  RH  062%=      5-min Rain = 0
KSGV 140910Z 24004KT 05/M02 A3022 RMK A01 T00451019  RH  064%=      5-min Rain = 0
KSGV 140915Z 24005KT 05/M02 A3022 RMK A01 T00461020  RH  063%=      5-min Rain = 0
KSGV 140920Z 23004KT 05/M02 A3021 RMK A01 T00461020  RH  063%=      5-min Rain = 0
KSGV 140925Z 22004KT 05/M02 A3021 RMK A01 T00461018  RH  064%=      5-min Rain = 0
KSGV 140930Z 22004KT 05/M02 A3022 RMK A01 T00471016  RH  064%=      5-min Rain = 0
KSGV 140935Z 21003KT 05/M02 A3022 RMK A01 T00491016  RH  064%=      5-min Rain = 0
KSGV 140940Z 22002KT 05/M01 A3022 RMK A01 T00511014  RH  063%=      5-min Rain = 0
KSGV 140945Z 22002KT 05/M02 A3022 RMK A01 T00511015  RH  063%=      5-min Rain = 0
KSGV 140950Z 21003KT 05/M02 A3022 RMK A01 T00511015  RH  063%=      5-min Rain = 0
KSGV 140955Z 19004KT 05/M02 A3021 RMK A01 T00501017  RH  063%=      5-min Rain = 0
KSGV 141000Z 20004KT 05/M02 A3021 RMK A01 T00481018  RH  063%=      5-min Rain = 0
KSGV 141005Z 21005KT 05/M02 A3021 RMK A01 T00461021  RH  063%=      5-min Rain = 0
KSGV 141010Z 22004KT 05/M02 A3021 RMK A01 T00451021  RH  063%=      5-min Rain = 0
KSGV 141015Z 22004KT 04/M02 A3021 RMK A01 T00441024  RH  062%=      5-min Rain = 0
KSGV 141020Z 23003KT 04/M03 A3021 RMK A01 T00421025  RH  063%=      5-min Rain = 0
KSGV 141025Z 26003KT 04/M02 A3021 RMK A01 T00371024  RH  065%=      5-min Rain = 0
KSGV 141030Z 28004KT 04/M02 A3021 RMK A01 T00371019  RH  068%=      5-min Rain = 0
KSGV 141035Z 27005KT 04/M02 A3021 RMK A01 T00371021  RH  067%=      5-min Rain = 0
KSGV 141040Z 26005KT 04/M02 A3022 RMK A01 T00391021  RH  066%=      5-min Rain = 0
KSGV 141045Z 25003KT 04/M02 A3022 RMK A01 T00421021  RH  064%=      5-min Rain = 0
KSGV 141050Z 21002KT 04/M02 A3021 RMK A01 T00441018  RH  065%=      5-min Rain = 0
KSGV 141055Z 23002KT 05/M02 A3021 RMK A01 T00461015  RH  065%=      5-min Rain = 0
KSGV 141100Z 23004KT 05/M02 A3022 RMK A01 T00481015  RH  064%=      5-min Rain = 0
KSGV 141105Z 22005KT 05/M02 A3022 RMK A01 T00501018  RH  062%=      5-min Rain = 0
KSGV 141110Z 23005KT 05/M02 A3021 RMK A01 T00531018  RH  061%=      5-min Rain = 0
KSGV 141115Z 22004KT 06/M02 A3022 RMK A01 T00561018  RH  059%=      5-min Rain = 0
KSGV 141120Z 20003KT 06/M02 A3022 RMK A01 T00561019  RH  059%=      5-min Rain = 0
KSGV 141125Z 18003KT 05/M02 A3022 RMK A01 T00541019  RH  060%=      5-min Rain = 0
KSGV 141130Z 16002KT 05/M02 A3022 RMK A01 T00521019  RH  060%=      5-min Rain = 0
KSGV 141135Z 15003KT 05/M02 A3022 RMK A01 T00511016  RH  062%=      5-min Rain = 0
KSGV 141140Z 17004KT 05/M02 A3021 RMK A01 T00511016  RH  063%=      5-min Rain = 0
KSGV 141145Z 17004KT 05/M02 A3021 RMK A01 T00481017  RH  063%=      5-min Rain = 0
KSGV 141150Z 17006KT 05/M02 A3021 RMK A01 T00451017  RH  065%=      5-min Rain = 0
KSGV 141155Z 19005KT 04/M02 A3021 RMK A01 T00441016  RH  066%=      5-min Rain = 0
KSGV 141200Z 19004KT 04/M02 A3021 RMK A01 T00441016  RH  066%=      5-min Rain = 0
KSGV 141205Z 18003KT 04/M02 A3022 RMK A01 T00431016  RH  066%=      5-min Rain = 0
KSGV 141210Z 20001KT 04/M02 A3021 RMK A01 T00431017  RH  066%=      5-min Rain = 0
KSGV 141215Z 13001KT 04/M02 A3021 RMK A01 T00411017  RH  066%=      5-min Rain = 0
KSGV 141220Z 18002KT 04/M01 A3021 RMK A01 T00431014  RH  067%=      5-min Rain = 0
KSGV 141225Z 20003KT 05/M01 A3022 RMK A01 T00461013  RH  066%=      5-min Rain = 0
KSGV 141230Z 22004KT 05/M02 A3022 RMK A01 T00471015  RH  065%=      5-min Rain = 0
KSGV 141235Z 23002KT 05/M02 A3022 RMK A01 T00471016  RH  065%=      5-min Rain = 0
KSGV 141240Z 31001KT 05/M02 A3021 RMK A01 T00451015  RH  066%=      5-min Rain = 0
KSGV 141245Z 18002KT 04/M01 A3021 RMK A01 T00441013  RH  067%=      5-min Rain = 0
KSGV 141250Z 18003KT 05/M01 A302 RMK A01 T00451012  RH  067%=      5-min Rain = 0
KSGV 141255Z 19004KT 05/M01 A3021 RMK A01 T00481010  RH  067%=      5-min Rain = 0
KSGV 141300Z 18005KT 05/M01 A3021 RMK A01 T00511010  RH  065%=      5-min Rain = 0
KSGV 141305Z 26004KT 05/M01 A3021 RMK A01 T00541011  RH  064%=      5-min Rain = 0
KSGV 141310Z 29003KT 05/M01 A3021 RMK A01 T00521010  RH  065%=      5-min Rain = 0
KSGV 141315Z 26002KT 05/M01 A3021 RMK A01 T00501008  RH  067%=      5-min Rain = 0
KSGV 141320Z 30002KT 05/M01 A3021 RMK A01 T00511007  RH  067%=      5-min Rain = 0
KSGV 141325Z 33002KT 05/M01 A3021 RMK A01 T00511007  RH  067%=      5-min Rain = 0
KSGV 141330Z 31002KT 05/M01 A302 RMK A01 T00521008  RH  066%=      5-min Rain = 0
KSGV 141335Z 31002KT 05/M01 A302 RMK A01 T00531008  RH  065%=      5-min Rain = 0
KSGV 141340Z 30003KT 05/M01 A3021 RMK A01 T00521010  RH  065%=      5-min Rain = 0
KSGV 141345Z 31003KT 05/M01 A3021 RMK A01 T00461013  RH  066%=      5-min Rain = 0
KSGV 141350Z 30002KT 04/M01 A302 RMK A01 T00441012  RH  068%=      5-min Rain = 0
KSGV 141355Z 30004KT 04/M01 A3021 RMK A01 T00431011  RH  069%=      5-min Rain = 0
KSGV 141400Z 30004KT 04/M01 A302 RMK A01 T00431011  RH  069%=      5-min Rain = 0
KSGV 141405Z 29004KT 04/M01 A3021 RMK A01 T00441011  RH  068%=      5-min Rain = 0
KSGV 141410Z 29004KT 05/M01 A3021 RMK A01 T00471007  RH  069%=      5-min Rain = 0
KSGV 141415Z 29004KT 05/M01 A3021 RMK A01 T00531005  RH  067%=      5-min Rain = 0
KSGV 141420Z 29004KT 06/M01 A3021 RMK A01 T00571006  RH  065%=      5-min Rain = 0
KSGV 141425Z 28004KT 06/M01 A3021 RMK A01 T00601006  RH  063%=      5-min Rain = 0
KSGV 141430Z 26001KT 06/M01 A3021 RMK A01 T00621005  RH  063%=      5-min Rain = 0
KSGV 141435Z 24001KT 06/M00 A302 RMK A01 T00641004  RH  063%=      5-min Rain = 0
KSGV 141440Z 27000KT 07/M00 A302 RMK A01 T00661002  RH  062%=      5-min Rain = 0
KSGV 141445Z 25001KT 07/00 A302 RMK A01 T006900-0  RH  062%=      5-min Rain = 0
KSGV 141450Z 28001KT 07/00 A3021 RMK A01 T00720001  RH  061%=      5-min Rain = 0
KSGV 141455Z 29002KT 07/00 A302 RMK A01 T00740002  RH  061%=      5-min Rain = 0
KSGV 141500Z 28003KT 08/01 A302 RMK A01 T00790006  RH  060%=      5-min Rain = 0
KSGV 141505Z 27003KT 08/01 A302 RMK A01 T00840008  RH  060%=      5-min Rain = 0
KSGV 141510Z 26004KT 09/01 A3021 RMK A01 T00880010  RH  059%=      5-min Rain = 0
KSGV 141515Z 26004KT 09/01 A3021 RMK A01 T00910013  RH  059%=      5-min Rain = 0
KSGV 141520Z 26005KT 10/02 A3021 RMK A01 T00970017  RH  058%=      5-min Rain = 0
KSGV 141525Z 26005KT 10/02 A3021 RMK A01 T01020018  RH  057%=      5-min Rain = 0
KSGV 141530Z 27005KT 11/02 A3021 RMK A01 T01050018  RH  056%=      5-min Rain = 0
KSGV 141535Z 27004KT 11/02 A3021 RMK A01 T01070018  RH  055%=      5-min Rain = 0
KSGV 141540Z 26004KT 11/02 A3021 RMK A01 T01090018  RH  054%=      5-min Rain = 0
KSGV 141545Z 25005KT 11/02 A3021 RMK A01 T01120020  RH  054%=      5-min Rain = 0
KSGV 141550Z 25006KT 12/02 A3021 RMK A01 T01180021  RH  052%=      5-min Rain = 0
KSGV 141555Z 25006KT 12/02 A3022 RMK A01 T01200021  RH  051%=      5-min Rain = 0
KSGV 141600Z 24006KT 12/02 A3022 RMK A01 T01220021  RH  051%=      5-min Rain = 0
KSGV 141605Z 24006KT 13/02 A3021 RMK A01 T01300022  RH  049%=      5-min Rain = 0
KSGV 141610Z 23006KT 14/02 A3021 RMK A01 T01390023  RH  046%=      5-min Rain = 0
KSGV 141615Z 23007KT 15/02 A3021 RMK A01 T01460022  RH  044%=      5-min Rain = 0
KSGV 141620Z 22006KT 16/02 A3021 RMK A01 T01550022  RH  041%=      5-min Rain = 0
KSGV 141625Z 23007KT 16/02 A302 RMK A01 T01630018  RH  038%=      5-min Rain = 0
KSGV 141630Z 22008KT 17/01 A302 RMK A01 T01740011  RH  034%=      5-min Rain = 0
KSGV 141635Z 22009KT 18/01 A302 RMK A01 T01830006  RH  031%=      5-min Rain = 0
KSGV 141640Z 21010KT 19/00 A302 RMK A01 T018900-0  RH  028%=      5-min Rain = 0
KSGV 141645Z 21009KT 20/M00 A302 RMK A01 T01971002  RH  026%=      5-min Rain = 0
KSGV 141650Z 22010KT 20/M00 A302 RMK A01 T02011004  RH  026%=      5-min Rain = 0
KSGV 141655Z 22009KT 21/M00 A302 RMK A01 T02051003  RH  025%=      5-min Rain = 0
KSGV 141700Z 22009KT 21/M01 A302 RMK A01 T02121008  RH  023%=      5-min Rain = 0
KSGV 141705Z 22010KT 22/M02 A302 RMK A01 T02161015  RH  021%=      5-min Rain = 0
KSGV 141710Z 22011KT 22/M02 A302 RMK A01 T02201019  RH  020%=      5-min Rain = 0
KSGV 141715Z 22012KT 22/M02 A302 RMK A01 T02211022  RH  020%=      5-min Rain = 0
KSGV 141720Z 22013KT 22/M03 A3019 RMK A01 T02231027  RH  019%=      5-min Rain = 0
KSGV 141725Z 21014KT 23/M04 A3019 RMK A01 T02261041  RH  017%=      5-min Rain = 0
KSGV 141730Z 22014G19KT 23/M05 A3018 RMK A01 T02271046  RH  016%=      5-min Rain = 0
KSGV 141735Z 21015G21KT 23/M05 A3018 RMK A01 T02261046  RH  016%=      5-min Rain = 0
KSGV 141740Z 22013KT 23/M04 A3018 RMK A01 T02281044  RH  016%=      5-min Rain = 0
KSGV 141745Z 22012G19KT 23/M05 A3018 RMK A01 T02341046  RH  015%=      5-min Rain = 0
KSGV 141750Z 22012G19KT 24/M05 A3017 RMK A01 T02361048  RH  015%=      5-min Rain = 0
KSGV 141755Z 22017KT 24/M06 A3017 RMK A01 T02381058  RH  014%=      5-min Rain = 0
KSGV 141800Z 22015KT 24/M06 A3017 RMK A01 T02391059  RH  013%=      5-min Rain = 0
KSGV 141805Z 23016G21KT 24/M06 A3017 RMK A01 T02391059  RH  013%=      5-min Rain = 0
KSGV 141810Z 23014KT 24/M06 A3017 RMK A01 T02381060  RH  013%=      5-min Rain = 0
KSGV 141815Z 23015G21KT 24/M06 A3016 RMK A01 T02371062  RH  013%=      5-min Rain = 0
KSGV 141820Z 23015KT 24/M06 A3016 RMK A01 T02391061  RH  013%=      5-min Rain = 0
KSGV 141825Z 23017KT 24/M06 A3016 RMK A01 T02401063  RH  013%=      5-min Rain = 0
KSGV 141830Z 23014G20KT 24/M06 A3015 RMK A01 T02431060  RH  013%=      5-min Rain = 0
KSGV 141835Z 23017KT 25/M06 A3015 RMK A01 T02461061  RH  013%=      5-min Rain = 0
KSGV 141840Z 23016G21KT 25/M06 A3014 RMK A01 T02491061  RH  012%=      5-min Rain = 0
KSGV 141845Z 22017G24KT 25/M06 A3014 RMK A01 T02521062  RH  012%=      5-min Rain = 0
KSGV 141850Z 22017G22KT 25/M06 A3014 RMK A01 T02541062  RH  012%=      5-min Rain = 0
KSGV 141855Z 21016KT 26/M06 A3013 RMK A01 T02571058  RH  012%=      5-min Rain = 0
KSGV 141900Z 22017G22KT 26/M06 A3013 RMK A01 T02611059  RH  012%=      5-min Rain = 0
KSGV 141905Z 22019G25KT 26/M06 A3013 RMK A01 T02591061  RH  012%=      5-min Rain = 0
KSGV 141910Z 22019KT 26/M06 A3012 RMK A01 T02561061  RH  012%=      5-min Rain = 0
KSGV 141915Z 22018G23KT 25/M06 A3012 RMK A01 T02501061  RH  012%=      5-min Rain = 0
KSGV 141920Z 22016G21KT 25/M06 A3011 RMK A01 T02511058  RH  013%=      5-min Rain = 0
KSGV 141925Z 22015G20KT 25/M06 A3011 RMK A01 T02531057  RH  013%=      5-min Rain = 0
KSGV 141930Z 22018G24KT 26/M05 A3011 RMK A01 T02641053  RH  012%=      5-min Rain = 0
KSGV 141935Z 22017G22KT 27/M05 A301 RMK A01 T02671051  RH  012%=      5-min Rain = 0
KSGV 141940Z 22014KT 27/M05 A301 RMK A01 T02661051  RH  012%=      5-min Rain = 0
KSGV 141945Z 21018G24KT 27/M05 A301 RMK A01 T02671048  RH  012%=      5-min Rain = 0
KSGV 141950Z 22018G24KT 27/M04 A3009 RMK A01 T02681043  RH  013%=      5-min Rain = 0
KSGV 141955Z 22017G22KT 27/M04 A3009 RMK A01 T02731043  RH  012%=      5-min Rain = 0
KSGV 142000Z 20019G25KT 28/M05 A3009 RMK A01 T02781047  RH  012%=      5-min Rain = 0
KSGV 142005Z 21018G24KT 28/M04 A3009 RMK A01 T02771043  RH  012%=      5-min Rain = 0
KSGV 142010Z 21018G24KT 28/M04 A3009 RMK A01 T02781041  RH  012%=      5-min Rain = 0
KSGV 142015Z 21019G28KT 28/M04 A3008 RMK A01 T02761038  RH  013%=      5-min Rain = 0
KSGV 142020Z 22020G28KT 27/M04 A3008 RMK A01 T02711037  RH  013%=      5-min Rain = 0
KSGV 142025Z 22017G25KT 27/M04 A3008 RMK A01 T02711035  RH  013%=      5-min Rain = 0
KSGV 142030Z 22021G26KT 28/M03 A3007 RMK A01 T02771030  RH  013%=      5-min Rain = 0
KSGV 142035Z 21021G27KT 28/M03 A3007 RMK A01 T02751031  RH  013%=      5-min Rain = 0
KSGV 142040Z 21019G24KT 28/M03 A3007 RMK A01 T02751031  RH  013%=      5-min Rain = 0
KSGV 142045Z 22019G27KT 28/M03 A3007 RMK A01 T02761027  RH  014%=      5-min Rain = 0
KSGV 142050Z 23022G29KT 27/M02 A3006 RMK A01 T02731021  RH  015%=      5-min Rain = 0
KSGV 142055Z 23020G26KT 27/M02 A3006 RMK A01 T02691017  RH  015%=      5-min Rain = 0
KSGV 142100Z 23018KT 27/M02 A3006 RMK A01 T02741018  RH  015%=      5-min Rain = 0
KSGV 142105Z 22021KT 27/M02 A3006 RMK A01 T02731015  RH  015%=      5-min Rain = 0
KSGV 142110Z 23019G30KT 27/M01 A3005 RMK A01 T02721012  RH  016%=      5-min Rain = 0
KSGV 142115Z 22021G29KT 28/M01 A3005 RMK A01 T02751010  RH  016%=      5-min Rain = 0
KSGV 142120Z 23023G30KT 28/M01 A3005 RMK A01 T02751010  RH  016%=      5-min Rain = 0
KSGV 142125Z 23021G27KT 27/M01 A3005 RMK A01 T02691010  RH  016%=      5-min Rain = 0
KSGV 142130Z 23020G28KT 28/M01 A3005 RMK A01 T02751012  RH  015%=      5-min Rain = 0
KSGV 142135Z 22022G29KT 28/M02 A3005 RMK A01 T02791018  RH  014%=      5-min Rain = 0
KSGV 142140Z 22022G27KT 28/M02 A3005 RMK A01 T02761016  RH  015%=      5-min Rain = 0
KSGV 142145Z 22019G24KT 27/M02 A3005 RMK A01 T02711018  RH  015%=      5-min Rain = 0
KSGV 142150Z 23023G29KT 27/M01 A3005 RMK A01 T02691013  RH  016%=      5-min Rain = 0
KSGV 142155Z 23019G28KT 27/M01 A3005 RMK A01 T02711014  RH  016%=      5-min Rain = 0
KSGV 142200Z 22018G24KT 27/M02 A3004 RMK A01 T02711016  RH  015%=      5-min Rain = 0
KSGV 142205Z 22020G28KT 27/M02 A3004 RMK A01 T02731015  RH  015%=      5-min Rain = 0
KSGV 142210Z 23023G30KT 28/M01 A3003 RMK A01 T02761009  RH  016%=      5-min Rain = 0
KSGV 142215Z 22023G30KT 28/M01 A3003 RMK A01 T02771011  RH  015%=      5-min Rain = 0
KSGV 142220Z 21022G28KT 28/M01 A3003 RMK A01 T02761012  RH  015%=      5-min Rain = 0
KSGV 142225Z 21022G28KT 27/M01 A3003 RMK A01 T02741012  RH  015%=      5-min Rain = 0
KSGV 142230Z 22021G26KT 28/M01 A3003 RMK A01 T02771013  RH  015%=      5-min Rain = 0
KSGV 142235Z 21020G33KT 28/M01 A3003 RMK A01 T02761014  RH  015%=      5-min Rain = 0
KSGV 142240Z 21020G28KT 28/M02 A3003 RMK A01 T02761015  RH  015%=      5-min Rain = 0
KSGV 142245Z 22020G27KT 27/M02 A3002 RMK A01 T02731015  RH  015%=      5-min Rain = 0
KSGV 142250Z 22021G26KT 27/M02 A3002 RMK A01 T02711015  RH  015%=      5-min Rain = 0
KSGV 142255Z 21018G26KT 27/M02 A3002 RMK A01 T02701016  RH  015%=      5-min Rain = 0
KSGV 142300Z 21019G24KT 27/M02 A3002 RMK A01 T02701017  RH  015%=      5-min Rain = 0
KSGV 142305Z 21018G25KT 27/M02 A3002 RMK A01 T02691016  RH  015%=      5-min Rain = 0
KSGV 142310Z 20018KT 27/M02 A3002 RMK A01 T02691016  RH  016%=      5-min Rain = 0
KSGV 142315Z 21017G23KT 27/M02 A3002 RMK A01 T02691016  RH  016%=      5-min Rain = 0
KSGV 142320Z 22016G21KT 27/M02 A3002 RMK A01 T02681016  RH  016%=      5-min Rain = 0
KSGV 142325Z 21017G22KT 27/M02 A3002 RMK A01 T02681017  RH  015%=      5-min Rain = 0
KSGV 142330Z 20014G21KT 27/M02 A3002 RMK A01 T02651017  RH  016%=      5-min Rain = 0
KSGV 142335Z 21015KT 26/M02 A3001 RMK A01 T02621017  RH  016%=      5-min Rain = 0
KSGV 142340Z 21015G20KT 26/M02 A3001 RMK A01 T02621016  RH  016%=      5-min Rain = 0
KSGV 142345Z 21015KT 26/M02 A3001 RMK A01 T02611016  RH  016%=      5-min Rain = 0
KSGV 142350Z 21015KT 26/M02 A3001 RMK A01 T02591016  RH  016%=      5-min Rain = 0
KSGV 142355Z 21013G18KT 26/M02 A3001 RMK A01 T02551016  RH  017%=      5-min Rain = 0
KSGV 150000Z 21012KT 25/M02 A3001 RMK A01 T02521016  RH  017%=      5-min Rain = 0
KSGV 150005Z 20012KT 25/M02 A3001 RMK A01 T02501016  RH  017%=      5-min Rain = 0
KSGV 150010Z 19011KT 25/M02 A3001 RMK A01 T02481017  RH  018%=      5-min Rain = 0
KSGV 150015Z 20010KT 25/M02 A3001 RMK A01 T02451017  RH  018%=      5-min Rain = 0
KSGV 150020Z 19010KT 24/M02 A3002 RMK A01 T02421015  RH  018%=      5-min Rain = 0
KSGV 150025Z 19009KT 24/M01 A3002 RMK A01 T02361012  RH  019%=      5-min Rain = 0
KSGV 150030Z 19009KT 23/M01 A3002 RMK A01 T02311011  RH  020%=      5-min Rain = 0
KSGV 150035Z 19008KT 23/M01 A3002 RMK A01 T02271011  RH  021%=      5-min Rain = 0
KSGV 150040Z 19008KT 22/M01 A3002 RMK A01 T02221011  RH  021%=      5-min Rain = 0
KSGV 150045Z 19007KT 22/M01 A3002 RMK A01 T02181011  RH  022%=      5-min Rain = 0
KSGV 150050Z 19008KT 22/M01 A3002 RMK A01 T02171010  RH  022%=      5-min Rain = 0
KSGV 150055Z 20008KT 21/M01 A3002 RMK A01 T02141010  RH  023%=      5-min Rain = 0
KSGV 150100Z 20007KT 21/M01 A3002 RMK A01 T02131010  RH  023%=      5-min Rain = 0
KSGV 150105Z 22006KT 21/M01 A3002 RMK A01 T02091013  RH  023%=      5-min Rain = 0
KSGV 150110Z 22006KT 20/M01 A3003 RMK A01 T02011014  RH  024%=      5-min Rain = 0
KSGV 150115Z 22007KT 19/M01 A3003 RMK A01 T01931014  RH  025%=      5-min Rain = 0
KSGV 150120Z 21007KT 19/M01 A3002 RMK A01 T01891014  RH  026%=      5-min Rain = 0
KSGV 150125Z 20007KT 19/M01 A3003 RMK A01 T01891014  RH  026%=      5-min Rain = 0
KSGV 150130Z 19007KT 19/M01 A3002 RMK A01 T01931012  RH  025%=      5-min Rain = 0
KSGV 150135Z 20007KT 20/M01 A3002 RMK A01 T01981012  RH  025%=      5-min Rain = 0
KSGV 150140Z 19007KT 20/M01 A3003 RMK A01 T01981011  RH  025%=      5-min Rain = 0
KSGV 150145Z 19007KT 19/M01 A3002 RMK A01 T01931010  RH  026%=      5-min Rain = 0
KSGV 150150Z 20008KT 19/M01 A3003 RMK A01 T01901010  RH  026%=      5-min Rain = 0
KSGV 150155Z 20008KT 19/M01 A3003 RMK A01 T01941011  RH  025%=      5-min Rain = 0
KSGV 150200Z 21008KT 19/M01 A3003 RMK A01 T01921012  RH  025%=      5-min Rain = 0
KSGV 150205Z 21008KT 19/M01 A3003 RMK A01 T01901011  RH  026%=      5-min Rain = 0
KSGV 150210Z 21008KT 19/M01 A3003 RMK A01 T01921009  RH  026%=      5-min Rain = 0
KSGV 150215Z 20009KT 19/M01 A3003 RMK A01 T01911009  RH  026%=      5-min Rain = 0
KSGV 150220Z 21009KT 19/M01 A3003 RMK A01 T01901008  RH  027%=      5-min Rain = 0
KSGV 150225Z 21009KT 19/M01 A3003 RMK A01 T01911007  RH  027%=      5-min Rain = 0
KSGV 150230Z 21008KT 19/M01 A3003 RMK A01 T01901006  RH  027%=      5-min Rain = 0
KSGV 150235Z 21008KT 19/M01 A3004 RMK A01 T01891006  RH  027%=      5-min Rain = 0
KSGV 150240Z 22008KT 19/M01 A3004 RMK A01 T01851007  RH  028%=      5-min Rain = 0
KSGV 150245Z 23007KT 18/M01 A3004 RMK A01 T01791008  RH  028%=      5-min Rain = 0
KSGV 150250Z 25007KT 17/M01 A3004 RMK A01 T01711005  RH  031%=      5-min Rain = 0
KSGV 150255Z 24007KT 16/M00 A3004 RMK A01 T01641001  RH  033%=      5-min Rain = 0
KSGV 150300Z 23008KT 16/M01 A3004 RMK A01 T01631005  RH  032%=      5-min Rain = 0
KSGV 150305Z 23008KT 17/M01 A3004 RMK A01 T01691007  RH  031%=      5-min Rain = 0
KSGV 150310Z 23006KT 17/M01 A3005 RMK A01 T01671008  RH  031%=      5-min Rain = 0
KSGV 150315Z 23007KT 16/M01 A3005 RMK A01 T01641010  RH  031%=      5-min Rain = 0
KSGV 150320Z 24007KT 16/M01 A3005 RMK A01 T01611009  RH  031%=      5-min Rain = 0
KSGV 150325Z 23006KT 16/M01 A3005 RMK A01 T01571010  RH  032%=      5-min Rain = 0
KSGV 150330Z 21006KT 16/M01 A3005 RMK A01 T01551011  RH  032%=      5-min Rain = 0
KSGV 150335Z 21007KT 16/M01 A3005 RMK A01 T01581010  RH  032%=      5-min Rain = 0
KSGV 150340Z 22007KT 16/M01 A3005 RMK A01 T01641008  RH  031%=      5-min Rain = 0
KSGV 150345Z 22007KT 16/M01 A3005 RMK A01 T01641007  RH  031%=      5-min Rain = 0
KSGV 150350Z 22007KT 16/M01 A3005 RMK A01 T01631005  RH  032%=      5-min Rain = 0
KSGV 150355Z 22008KT 17/M00 A3005 RMK A01 T01651003  RH  032%=      5-min Rain = 0
KSGV 150400Z 22007KT 17/M00 A3005 RMK A01 T01661002  RH  032%=      5-min Rain = 0
KSGV 150405Z 22007KT 16/M00 A3005 RMK A01 T01631001  RH  033%=      5-min Rain = 0
KSGV 150410Z 22007KT 16/M00 A3005 RMK A01 T01581001  RH  034%=      5-min Rain = 0
KSGV 150415Z 22007KT 15/00 A3005 RMK A01 T01540001  RH  036%=      5-min Rain = 0
KSGV 150420Z 21007KT 15/01 A3005 RMK A01 T01530006  RH  037%=      5-min Rain = 0
KSGV 150425Z 21007KT 15/01 A3005 RMK A01 T01530009  RH  038%=      5-min Rain = 0
KSGV 150430Z 21007KT 15/01 A3005 RMK A01 T01520011  RH  039%=      5-min Rain = 0
KSGV 150435Z 21007KT 15/02 A3005 RMK A01 T01520015  RH  040%=      5-min Rain = 0
KSGV 150440Z 21008KT 16/02 A3005 RMK A01 T01550022  RH  041%=      5-min Rain = 0
KSGV 150445Z 21007KT 16/02 A3005 RMK A01 T01570022  RH  041%=      5-min Rain = 0
KSGV 150450Z 22007KT 15/02 A3005 RMK A01 T01520020  RH  041%=      5-min Rain = 0
KSGV 150455Z 22007KT 15/02 A3005 RMK A01 T01480018  RH  042%=      5-min Rain = 0
KSGV 150500Z 22007KT 15/02 A3005 RMK A01 T01460016  RH  042%=      5-min Rain = 0
KSGV 150505Z 21008KT 15/02 A3005 RMK A01 T01470019  RH  042%=      5-min Rain = 0
KSGV 150510Z 20008KT 15/02 A3005 RMK A01 T01520022  RH  042%=      5-min Rain = 0
KSGV 150515Z 20008KT 15/03 A3005 RMK A01 T01540026  RH  043%=      5-min Rain = 0
KSGV 150520Z 20008KT 16/03 A3005 RMK A01 T01570031  RH  043%=      5-min Rain = 0
KSGV 150525Z 20008KT 16/04 A3005 RMK A01 T01580036  RH  044%=      5-min Rain = 0
KSGV 150530Z 21008KT 16/04 A3005 RMK A01 T01570035  RH  045%=      5-min Rain = 0
KSGV 150535Z 20008KT 16/04 A3005 RMK A01 T01570037  RH  045%=      5-min Rain = 0
KSGV 150540Z 21009KT 16/04 A3005 RMK A01 T01590039  RH  045%=      5-min Rain = 0
KSGV 150545Z 19008KT 16/04 A3005 RMK A01 T01610040  RH  045%=      5-min Rain = 0
KSGV 150550Z 19009KT 16/04 A3005 RMK A01 T01570039  RH  046%=      5-min Rain = 0
KSGV 150555Z 20009KT 16/04 A3005 RMK A01 T01580041  RH  046%=      5-min Rain = 0

Page generated in 0.0089 seconds.